Warminster, PA (18974)

7:19 PM EST on January 26, 2015 (GMT -0500)
Warwick Twp, Bucks County PA | Change Station
CLOSE
Current Station
Personal Weather Station
Location: Warminster, PA
Elevation: 223 ft
Nearby Weather Stations
Active Advisory: Winter Storm Warning Active Notice: Public Information Statement

Elev 223 ft 40.23 °N, 75.09 °W | Updated 8 seconds ago

Snow
Snow
24.7 °F
Feels Like 20 °F
N
3.4
Wind Variable Wind from NE
Gusts 7.0 mph

Today
High -- | Low -- °F
--% Chance of Precip.
Yesterday
High -- | Low -- °F
Precip. -- in
7:14 AM 5:11 PM
Waxing Crescent, 48% visible
Pressure 29.81 in
Visibility 2.5 miles
Clouds Overcast 1600 ft
Windchill 20 °F
Dew Point 22 °F
Humidity 90%
Rainfall 0.00 in
Snow Depth Not available.
UV 0 out of 12
Pollen .10 out of 12
Air Quality Not available.
Flu Activity Not available.
METAR KDYL 262354Z AUTO 04013G19KT 2 1/2SM -SN BR OVC016 M05/M06 A2977 RMK AO2 SLP092 P0000 60000 T10501061 11044 21061 58003

More Conditions Fewer Conditions

Pressure 29.81 in
Visibility 2.5 miles
Clouds Overcast 1600 ft
Windchill 20 °F
Dew Point 22 °F
Humidity 90%
Rainfall 0.00 in
Snow Depth Not available.
UV 0 out of 12
Pollen .10 out of 12
Air Quality Not available.
Flu Activity Not available.
METAR KDYL 262354Z AUTO 04013G19KT 2 1/2SM -SN BR OVC016 M05/M06 A2977 RMK AO2 SLP092 P0000 60000 T10501061 11044 21061 58003

More Conditions Fewer Conditions

10-Day Weather Forecast

Almanac

Astronomy

Jan. 26, 2015 Rise Set
Actual Time
Civil Twilight
Nautical Twilight
Astronomical Twilight
Moon
Length of Visible Light
Length of Day
Tomorrow will be .
, % of the Moon is Illuminated

Today's Extremes

State Highs State Lows

Community

WunderPhotos

Upload Photos

1,790,420 photos uploaded!

WunderBlogs® & News

Nearby

Air Quality

  Air Quality AQ Index Pollutant
Not available.

Snow Depth

Station Depth Elevation

Earthquake Activity

City Distance Mag. Time & Date
Minimum magnitude displayed is 2.5.

Coastal Water Temperatures

Place Temperature

Nearby Weather Stations